createdAt,value
2023-02-14T00:01:32.221Z,22.40
2023-02-14T00:04:01.618Z,22.47
2023-02-14T00:06:31.903Z,21.83
2023-02-14T00:09:00.465Z,21.63
2023-02-14T00:11:29.259Z,22.00
2023-02-14T00:14:15.414Z,24.67
2023-02-14T00:16:45.540Z,22.23
2023-02-14T00:19:14.529Z,20.17
2023-02-14T00:21:43.367Z,21.60
2023-02-14T00:24:12.843Z,20.87
2023-02-14T00:26:41.769Z,20.77
2023-02-14T00:29:11.316Z,20.17
2023-02-14T00:31:40.264Z,21.60
2023-02-14T00:34:10.961Z,21.07
2023-02-14T00:36:39.801Z,20.33
2023-02-14T00:39:09.498Z,20.40
2023-02-14T00:41:38.032Z,20.90
2023-02-14T00:44:06.964Z,19.80
2023-02-14T00:46:35.970Z,19.80
2023-02-14T00:49:04.471Z,18.60
2023-02-14T00:51:34.427Z,20.40
2023-02-14T00:54:03.414Z,19.90
2023-02-14T00:56:31.901Z,19.13
2023-02-14T00:59:00.358Z,19.77
2023-02-14T01:01:28.803Z,18.80
2023-02-14T01:03:58.863Z,18.93
2023-02-14T01:06:27.652Z,17.90
2023-02-14T01:08:57.508Z,19.93
2023-02-14T01:11:28.692Z,18.43
2023-02-14T01:13:58.892Z,17.53
2023-02-14T01:16:28.157Z,18.23
2023-02-14T01:18:56.811Z,16.90
2023-02-14T01:21:26.221Z,18.87
2023-02-14T01:23:55.458Z,20.33
2023-02-14T01:26:25.559Z,20.47
2023-02-14T01:28:54.040Z,19.90
2023-02-14T01:31:23.859Z,19.23
2023-02-14T01:33:52.696Z,19.67
2023-02-14T01:36:22.793Z,19.60
2023-02-14T01:38:53.348Z,19.13
2023-02-14T01:41:22.264Z,19.40
2023-02-14T01:43:53.334Z,18.80
2023-02-14T01:46:21.952Z,19.30
2023-02-14T01:48:51.164Z,18.03
2023-02-14T01:51:20.803Z,17.80
2023-02-14T01:53:49.632Z,18.57
2023-02-14T01:56:21.848Z,18.17
2023-02-14T01:58:52.984Z,20.23
2023-02-14T02:01:23.076Z,18.20
2023-02-14T02:03:53.504Z,18.80
2023-02-14T02:06:23.963Z,18.77
2023-02-14T02:08:57.808Z,20.50
2023-02-14T02:11:26.293Z,20.27
2023-02-14T02:13:54.767Z,18.77
2023-02-14T02:16:32.241Z,18.27
2023-02-14T02:19:07.702Z,17.10
2023-02-14T02:21:56.801Z,17.87
2023-02-14T02:24:32.647Z,16.53
2023-02-14T02:27:21.114Z,16.80
2023-02-14T02:30:22.733Z,17.63
2023-02-14T02:33:09.089Z,17.80
2023-02-14T02:35:49.645Z,17.70
2023-02-14T02:38:23.803Z,16.53
2023-02-14T02:41:01.641Z,18.07
2023-02-14T02:43:33.626Z,18.23
2023-02-14T02:46:21.832Z,17.70
2023-02-14T02:48:52.254Z,18.20
2023-02-14T02:51:43.725Z,18.80
2023-02-14T02:54:15.850Z,19.07
2023-02-14T02:56:49.865Z,18.27
2023-02-14T02:59:20.812Z,19.40
2023-02-14T03:01:51.415Z,19.17
2023-02-14T03:04:38.168Z,17.77
2023-02-14T03:07:22.271Z,18.23
2023-02-14T03:09:55.207Z,16.83
2023-02-14T03:12:31.428Z,18.13
2023-02-14T03:15:03.024Z,16.10
2023-02-14T03:17:34.536Z,16.47
2023-02-14T03:20:15.637Z,15.53
2023-02-14T03:22:52.914Z,16.43
2023-02-14T03:25:29.651Z,17.43
2023-02-14T03:28:01.124Z,15.23
2023-02-14T03:30:35.126Z,15.23
2023-02-14T03:33:05.593Z,15.90
2023-02-14T03:35:37.070Z,16.17
2023-02-14T03:38:10.202Z,16.03
2023-02-14T03:40:40.909Z,14.13
2023-02-14T03:43:12.037Z,15.03
2023-02-14T03:45:42.497Z,15.13
2023-02-14T03:48:12.846Z,14.83
2023-02-14T03:50:43.062Z,15.03
2023-02-14T03:53:14.745Z,15.03
2023-02-14T03:55:46.172Z,15.93
2023-02-14T03:58:17.569Z,14.97
2023-02-14T04:00:46.927Z,14.17
2023-02-14T04:03:18.261Z,14.40
2023-02-14T04:05:52.499Z,13.93
2023-02-14T04:08:29.099Z,14.70
2023-02-14T04:10:59.661Z,14.53
2023-02-14T04:13:28.458Z,12.90
2023-02-14T04:15:56.993Z,14.03
2023-02-14T04:18:42.979Z,13.27
2023-02-14T04:21:11.433Z,13.17
2023-02-14T04:23:41.218Z,13.80
2023-02-14T04:26:09.747Z,12.50
2023-02-14T04:28:38.275Z,12.70
2023-02-14T04:31:07.768Z,12.80
2023-02-14T04:33:36.479Z,11.70
2023-02-14T04:36:05.031Z,12.47
2023-02-14T04:38:34.024Z,13.10
2023-02-14T04:41:03.907Z,13.47
2023-02-14T04:43:32.304Z,12.83
2023-02-14T04:46:00.734Z,12.47
2023-02-14T04:48:29.380Z,13.77
2023-02-14T04:50:57.979Z,12.43
2023-02-14T04:53:26.666Z,13.60
2023-02-14T04:55:55.078Z,13.07
2023-02-14T04:58:24.888Z,13.07
2023-02-14T05:00:53.286Z,13.30
2023-02-14T05:03:22.229Z,12.87
2023-02-14T05:05:50.640Z,13.20
2023-02-14T05:08:19.122Z,13.77
2023-02-14T05:10:47.628Z,13.33
2023-02-14T05:13:17.647Z,13.93
2023-02-14T05:15:47.812Z,13.83
2023-02-14T05:18:16.253Z,14.07
2023-02-14T05:20:44.725Z,13.20
2023-02-14T05:23:13.833Z,13.23
2023-02-14T05:25:42.386Z,12.63
2023-02-14T05:28:11.358Z,12.97
2023-02-14T05:30:40.215Z,13.40
2023-02-14T05:33:10.234Z,13.57
2023-02-14T05:35:38.796Z,13.87
2023-02-14T05:38:07.293Z,14.20
2023-02-14T05:40:35.788Z,15.00
2023-02-14T05:43:04.270Z,15.70
2023-02-14T05:45:32.903Z,15.77
2023-02-14T05:48:01.356Z,16.67
2023-02-14T05:50:31.258Z,16.40
2023-02-14T05:52:59.688Z,15.87
2023-02-14T05:55:28.122Z,15.13
2023-02-14T05:57:56.919Z,16.13
2023-02-14T06:00:25.637Z,16.70
2023-02-14T06:02:54.092Z,14.70
2023-02-14T06:05:22.592Z,15.03
2023-02-14T06:07:52.419Z,14.57
2023-02-14T06:10:21.569Z,12.60
2023-02-14T06:12:50.750Z,11.77
2023-02-14T06:15:19.337Z,12.00
2023-02-14T06:17:52.278Z,11.33
2023-02-14T06:20:20.941Z,10.90
2023-02-14T06:22:49.396Z,12.03
2023-02-14T06:25:19.510Z,12.40
2023-02-14T06:27:49.346Z,11.10
2023-02-14T06:30:18.689Z,13.27
2023-02-14T06:32:47.487Z,12.17
2023-02-14T06:35:16.393Z,13.13
2023-02-14T06:37:45.443Z,13.47
2023-02-14T06:40:14.688Z,11.83
2023-02-14T06:42:44.744Z,13.37
2023-02-14T06:45:13.188Z,12.90
2023-02-14T06:47:41.799Z,12.83
2023-02-14T06:50:11.682Z,15.43
2023-02-14T06:52:42.177Z,16.27
2023-02-14T06:55:12.219Z,13.53
2023-02-14T06:57:40.646Z,14.20
2023-02-14T07:00:11.310Z,14.67
2023-02-14T07:02:39.837Z,13.23
2023-02-14T07:05:08.376Z,13.77
2023-02-14T07:07:36.808Z,12.63
2023-02-14T07:10:05.311Z,13.67
2023-02-14T07:12:34.918Z,13.37
2023-02-14T07:15:03.440Z,14.20
2023-02-14T07:17:33.361Z,13.10
2023-02-14T07:20:01.820Z,13.50
2023-02-14T07:22:30.470Z,15.57
2023-02-14T07:24:59.070Z,13.37
2023-02-14T07:27:27.587Z,14.83
2023-02-14T07:29:56.158Z,15.37
2023-02-14T07:32:24.799Z,13.17
2023-02-14T07:34:54.679Z,12.33
2023-02-14T07:37:23.279Z,11.93
2023-02-14T07:39:51.861Z,11.00
2023-02-14T07:42:20.290Z,10.47
2023-02-14T07:44:48.764Z,9.37
2023-02-14T07:47:17.197Z,9.33
2023-02-14T07:49:45.632Z,10.00
2023-02-14T07:52:15.475Z,10.17
2023-02-14T07:54:44.008Z,12.43
2023-02-14T07:57:12.493Z,10.57
2023-02-14T07:59:41.090Z,11.73
2023-02-14T08:02:09.801Z,11.30
2023-02-14T08:04:38.233Z,11.20
2023-02-14T08:07:06.675Z,10.87
2023-02-14T08:09:36.863Z,11.67
2023-02-14T08:12:22.993Z,13.40
2023-02-14T08:14:51.451Z,14.00
2023-02-14T08:17:19.899Z,13.67
2023-02-14T08:19:48.303Z,15.27
2023-02-14T08:22:18.328Z,14.13
2023-02-14T08:24:48.180Z,14.17
2023-02-14T08:27:16.584Z,13.70
2023-02-14T08:29:45.017Z,13.10
2023-02-14T08:32:15.061Z,14.30
2023-02-14T08:34:43.743Z,12.13
2023-02-14T08:37:12.153Z,13.57
2023-02-14T08:39:40.716Z,12.27
2023-02-14T08:42:10.734Z,11.83
2023-02-14T08:44:39.296Z,10.93
2023-02-14T08:47:07.917Z,9.80
2023-02-14T08:49:36.355Z,12.20
2023-02-14T08:52:04.793Z,10.60
2023-02-14T08:54:33.212Z,11.80
2023-02-14T08:57:03.583Z,12.40
2023-02-14T08:59:33.538Z,11.67
2023-02-14T09:02:02.023Z,12.40
2023-02-14T09:04:30.687Z,12.23
2023-02-14T09:06:59.146Z,11.97
2023-02-14T09:09:27.581Z,11.20
2023-02-14T09:11:56.273Z,11.50
2023-02-14T09:14:25.353Z,11.73
2023-02-14T09:16:55.286Z,10.40
2023-02-14T09:19:23.768Z,10.43
2023-02-14T09:21:52.269Z,9.67
2023-02-14T09:24:20.801Z,9.27
2023-02-14T09:26:49.375Z,8.90
2023-02-14T09:29:18.029Z,10.03
2023-02-14T09:31:46.564Z,8.87
2023-02-14T09:34:16.588Z,10.10
2023-02-14T09:37:04.342Z,9.43
2023-02-14T09:39:34.028Z,8.20
2023-02-14T09:42:12.626Z,9.47
2023-02-14T09:44:42.835Z,11.43
2023-02-14T09:47:17.925Z,12.37
2023-02-14T09:49:48.191Z,12.37
2023-02-14T09:52:17.931Z,12.60
2023-02-14T09:54:49.142Z,11.90
2023-02-14T09:57:23.165Z,14.47
2023-02-14T09:59:53.381Z,15.13
2023-02-14T10:02:32.855Z,14.97
2023-02-14T10:05:08.242Z,14.20
2023-02-14T10:07:42.043Z,15.73
2023-02-14T10:10:15.262Z,15.13
2023-02-14T10:12:45.409Z,15.03
2023-02-14T10:15:17.155Z,14.93
2023-02-14T10:17:47.661Z,14.53
2023-02-14T10:20:21.753Z,15.40
2023-02-14T10:22:55.092Z,16.57
2023-02-14T10:25:26.193Z,18.93
2023-02-14T10:27:55.080Z,17.63
2023-02-14T10:30:24.473Z,19.70
2023-02-14T10:32:58.501Z,18.97
2023-02-14T10:35:33.642Z,20.90
2023-02-14T10:38:06.500Z,20.53
2023-02-14T10:40:43.224Z,21.00
2023-02-14T10:43:16.340Z,21.33
2023-02-14T10:45:47.784Z,21.00
2023-02-14T10:48:21.209Z,21.23
2023-02-14T10:50:54.720Z,19.27
2023-02-14T10:53:25.932Z,20.37
2023-02-14T10:55:58.930Z,20.40
2023-02-14T10:58:29.675Z,21.03
2023-02-14T11:01:01.975Z,22.27
2023-02-14T11:03:31.589Z,21.27
2023-02-14T11:06:01.485Z,22.73
2023-02-14T11:08:30.945Z,25.17
2023-02-14T11:11:03.800Z,23.67
2023-02-14T11:13:33.496Z,24.23
2023-02-14T11:16:03.880Z,23.00
2023-02-14T11:18:36.944Z,23.50
2023-02-14T11:21:08.397Z,24.90
2023-02-14T11:23:38.376Z,23.90
2023-02-14T11:26:10.469Z,24.33
2023-02-14T11:28:42.025Z,24.33
2023-02-14T11:31:11.040Z,26.00
2023-02-14T11:33:40.779Z,24.40
2023-02-14T11:36:14.444Z,25.00
2023-02-14T11:38:43.995Z,26.17
2023-02-14T11:41:13.288Z,26.47
2023-02-14T11:43:42.646Z,25.03
2023-02-14T11:46:16.084Z,26.00
2023-02-14T11:48:57.775Z,26.93
2023-02-14T11:51:35.886Z,26.63
2023-02-14T11:54:06.119Z,25.33
2023-02-14T11:56:46.506Z,25.43
2023-02-14T11:59:27.012Z,27.33
2023-02-14T12:01:56.106Z,25.23
2023-02-14T12:04:27.809Z,27.57
2023-02-14T12:06:57.899Z,28.30
2023-02-14T12:09:29.480Z,25.40
2023-02-14T12:11:58.544Z,26.23
2023-02-14T12:14:28.472Z,28.53
2023-02-14T12:17:00.118Z,25.57
2023-02-14T12:19:33.398Z,26.03
2023-02-14T12:22:04.782Z,26.40
2023-02-14T12:24:34.975Z,25.97
2023-02-14T12:27:07.944Z,24.80
2023-02-14T12:29:39.217Z,25.50
2023-02-14T12:32:21.856Z,24.13
2023-02-14T12:34:50.632Z,26.77
2023-02-14T12:37:28.313Z,24.33
2023-02-14T12:40:04.210Z,24.63
2023-02-14T12:42:40.216Z,23.33
2023-02-14T12:45:14.346Z,24.17
2023-02-14T12:47:46.747Z,26.83
2023-02-14T12:50:20.718Z,26.70
2023-02-14T12:52:58.184Z,24.73
2023-02-14T12:55:39.050Z,26.37
2023-02-14T12:58:11.350Z,24.60
2023-02-14T13:00:45.175Z,25.20
2023-02-14T13:03:21.760Z,25.87
2023-02-14T13:05:55.656Z,25.30
2023-02-14T13:08:31.532Z,24.43
2023-02-14T13:11:03.065Z,23.97
2023-02-14T13:13:35.475Z,22.97
2023-02-14T13:16:10.936Z,23.27
2023-02-14T13:18:45.773Z,22.17
2023-02-14T13:21:16.058Z,22.63
2023-02-14T13:23:46.845Z,23.20
2023-02-14T13:26:17.848Z,23.60
2023-02-14T13:28:49.692Z,24.20
2023-02-14T13:31:18.626Z,23.97
2023-02-14T13:33:50.467Z,23.77
2023-02-14T13:36:18.894Z,24.43
2023-02-14T13:38:50.868Z,24.50
2023-02-14T13:41:20.698Z,24.60
2023-02-14T13:43:53.287Z,22.47
2023-02-14T13:46:23.248Z,23.47
2023-02-14T13:48:59.455Z,24.80
2023-02-14T13:51:42.712Z,24.97
2023-02-14T13:54:22.142Z,25.57
2023-02-14T13:56:50.609Z,23.73
2023-02-14T13:59:26.922Z,25.13
2023-02-14T14:01:56.222Z,24.10
2023-02-14T14:04:45.330Z,23.70
2023-02-14T14:07:17.869Z,24.43
2023-02-14T14:09:58.442Z,24.67
2023-02-14T14:12:39.709Z,23.60
2023-02-14T14:15:13.153Z,23.67
2023-02-14T14:17:42.942Z,24.03
2023-02-14T14:20:26.177Z,22.80
2023-02-14T14:22:55.920Z,22.57
2023-02-14T14:25:33.888Z,23.97
2023-02-14T14:28:02.764Z,24.13
2023-02-14T14:30:33.118Z,24.53
2023-02-14T14:33:14.348Z,23.07
2023-02-14T14:35:53.626Z,22.93
2023-02-14T14:38:22.037Z,23.37
2023-02-14T14:40:52.412Z,22.97
2023-02-14T14:43:24.561Z,23.43
2023-02-14T14:45:53.424Z,24.87
2023-02-14T14:48:24.977Z,24.77
2023-02-14T14:50:53.515Z,24.20
2023-02-14T14:53:23.318Z,25.63
2023-02-14T14:55:54.828Z,24.70
2023-02-14T14:58:32.759Z,23.80
2023-02-14T15:01:01.352Z,24.43
2023-02-14T15:03:30.996Z,24.93
2023-02-14T15:06:08.230Z,25.67
2023-02-14T15:08:37.027Z,24.27
2023-02-14T15:11:09.911Z,27.10
2023-02-14T15:13:57.538Z,23.83
2023-02-14T15:16:27.875Z,22.40
2023-02-14T15:18:58.220Z,24.00
2023-02-14T15:21:27.119Z,23.00
2023-02-14T15:23:55.742Z,23.90
2023-02-14T15:26:28.992Z,23.43
2023-02-14T15:28:58.397Z,24.77
2023-02-14T15:31:30.039Z,24.23
2023-02-14T15:34:00.093Z,23.40
2023-02-14T15:36:28.982Z,23.27
2023-02-14T15:38:58.640Z,21.47
2023-02-14T15:41:29.109Z,22.53
2023-02-14T15:43:58.624Z,23.67
2023-02-14T15:46:31.197Z,22.50
2023-02-14T15:49:01.348Z,21.53
2023-02-14T15:51:32.171Z,22.97
2023-02-14T15:54:02.291Z,23.93
2023-02-14T15:56:33.326Z,22.60
2023-02-14T15:59:03.266Z,21.43
2023-02-14T16:01:32.125Z,23.60
2023-02-14T16:04:02.518Z,21.57
2023-02-14T16:06:35.651Z,23.60
2023-02-14T16:09:04.637Z,22.83
2023-02-14T16:11:36.074Z,22.30
2023-02-14T16:14:30.289Z,24.13
2023-02-14T16:16:59.539Z,23.30
2023-02-14T16:19:38.423Z,22.60
2023-02-14T16:22:08.198Z,23.87
2023-02-14T16:24:37.919Z,26.37
2023-02-14T16:27:07.971Z,26.30
2023-02-14T16:29:36.909Z,22.83
2023-02-14T16:32:16.500Z,23.87
2023-02-14T16:34:47.249Z,22.77
2023-02-14T16:37:20.880Z,21.50
2023-02-14T16:39:49.558Z,22.67
2023-02-14T16:42:20.183Z,21.17
2023-02-14T16:44:48.979Z,22.13
2023-02-14T16:47:18.012Z,22.73
2023-02-14T16:49:46.851Z,22.30
2023-02-14T16:52:17.051Z,21.57
2023-02-14T16:54:45.724Z,22.93
2023-02-14T16:57:18.440Z,21.90
2023-02-14T16:59:48.421Z,22.43
2023-02-14T17:02:19.031Z,21.57
2023-02-14T17:04:47.718Z,21.87
2023-02-14T17:07:17.419Z,22.80
2023-02-14T17:09:47.434Z,21.73
2023-02-14T17:12:18.486Z,23.77
2023-02-14T17:14:50.714Z,25.73
2023-02-14T17:17:19.307Z,26.83
2023-02-14T17:19:47.863Z,26.20
2023-02-14T17:22:16.487Z,27.43
2023-02-14T17:24:44.914Z,28.20
2023-02-14T17:27:13.366Z,53.77
2023-02-14T17:29:41.829Z,50.00
2023-02-14T17:32:13.878Z,50.60
2023-02-14T17:34:42.462Z,43.30
2023-02-14T17:37:10.953Z,37.53
2023-02-14T17:39:39.369Z,37.50
2023-02-14T17:42:09.441Z,37.67
2023-02-14T17:44:38.798Z,35.23
2023-02-14T17:47:07.288Z,35.03
2023-02-14T17:49:37.103Z,33.90
2023-02-14T17:52:05.593Z,33.03
2023-02-14T17:54:38.272Z,33.20
2023-02-14T17:57:06.668Z,34.20
2023-02-14T17:59:35.365Z,33.43
2023-02-14T18:02:04.017Z,33.23
2023-02-14T18:04:34.839Z,33.77
2023-02-14T18:07:04.662Z,34.57
2023-02-14T18:09:33.200Z,34.47
2023-02-14T18:12:01.587Z,34.27
2023-02-14T18:14:30.570Z,34.77
2023-02-14T18:16:58.946Z,31.23
2023-02-14T18:19:27.319Z,32.10
2023-02-14T18:21:55.836Z,33.67
2023-02-14T18:24:25.604Z,34.60
2023-02-14T18:26:56.139Z,33.07
2023-02-14T18:29:24.538Z,30.63
2023-02-14T18:31:53.052Z,31.63
2023-02-14T18:34:21.580Z,30.10
2023-02-14T18:36:50.014Z,31.37
2023-02-14T18:39:19.951Z,32.73
2023-02-14T18:41:49.750Z,32.13
2023-02-14T18:44:18.260Z,33.03
2023-02-14T18:46:46.706Z,32.30
2023-02-14T18:49:15.458Z,30.97
2023-02-14T18:51:43.861Z,31.93
2023-02-14T18:54:12.266Z,83.93
2023-02-14T18:56:40.722Z,34.40
2023-02-14T18:59:11.068Z,33.50
2023-02-14T19:01:40.779Z,33.80
2023-02-14T19:04:12.078Z,32.33
2023-02-14T19:06:41.757Z,33.33
2023-02-14T19:09:11.364Z,32.60
2023-02-14T19:11:40.385Z,31.27
2023-02-14T19:14:11.101Z,32.40
2023-02-14T19:16:40.298Z,32.87
2023-02-14T19:19:08.734Z,34.50
2023-02-14T19:21:37.350Z,33.87
2023-02-14T19:24:07.991Z,33.67
2023-02-14T19:26:40.420Z,33.93
2023-02-14T19:29:11.774Z,31.97
2023-02-14T19:31:41.573Z,30.13
2023-02-14T19:34:15.948Z,28.87
2023-02-14T19:36:44.382Z,27.13
2023-02-14T19:39:13.261Z,35.00
2023-02-14T19:41:42.181Z,31.67
2023-02-14T19:44:13.792Z,26.17
2023-02-14T19:46:42.944Z,25.57
2023-02-14T19:49:14.389Z,28.33
2023-02-14T19:51:43.195Z,27.50
2023-02-14T19:54:12.646Z,26.87
2023-02-14T19:56:41.822Z,24.83
2023-02-14T19:59:10.309Z,24.57
2023-02-14T20:01:41.999Z,21.73
2023-02-14T20:04:11.251Z,25.33
2023-02-14T20:06:39.957Z,23.53
2023-02-14T20:09:08.711Z,25.47
2023-02-14T20:11:39.348Z,24.57
2023-02-14T20:14:08.075Z,86.13
2023-02-14T20:16:37.311Z,33.47
2023-02-14T20:19:08.630Z,27.27
2023-02-14T20:21:37.345Z,25.10
2023-02-14T20:24:06.146Z,24.90
2023-02-14T20:26:35.909Z,24.03
2023-02-14T20:29:05.350Z,22.43
2023-02-14T20:31:34.591Z,21.23
2023-02-14T20:34:03.164Z,19.37
2023-02-14T20:36:32.926Z,17.03
2023-02-14T20:39:02.110Z,16.43
2023-02-14T20:41:30.920Z,16.70
2023-02-14T20:44:04.623Z,19.30
2023-02-14T20:46:33.830Z,17.30
2023-02-14T20:49:04.346Z,17.73
2023-02-14T20:51:35.031Z,21.57
2023-02-14T20:54:04.707Z,19.13
2023-02-14T20:56:33.172Z,18.63
2023-02-14T20:59:01.865Z,17.40
2023-02-14T21:01:31.170Z,20.80
2023-02-14T21:03:59.743Z,23.53
2023-02-14T21:06:29.179Z,22.23
2023-02-14T21:08:58.977Z,22.00
2023-02-14T21:11:28.963Z,22.23
2023-02-14T21:13:59.890Z,20.70
2023-02-14T21:16:29.127Z,22.27
2023-02-14T21:18:59.183Z,21.53
2023-02-14T21:21:32.237Z,19.90
2023-02-14T21:24:02.833Z,18.87
2023-02-14T21:26:32.160Z,17.67
2023-02-14T21:29:01.077Z,15.60
2023-02-14T21:31:30.367Z,15.97
2023-02-14T21:34:00.325Z,14.90
2023-02-14T21:36:30.455Z,15.93
2023-02-14T21:39:01.287Z,15.20
2023-02-14T21:41:32.560Z,16.17
2023-02-14T21:44:01.669Z,17.00
2023-02-14T21:46:32.014Z,18.43
2023-02-14T21:49:30.356Z,16.30
2023-02-14T21:51:58.776Z,16.47
2023-02-14T21:54:27.380Z,17.73
2023-02-14T21:56:57.229Z,15.80
2023-02-14T21:59:25.767Z,14.10
2023-02-14T22:01:54.233Z,14.37
2023-02-14T22:04:22.676Z,14.27
2023-02-14T22:06:51.520Z,14.80
2023-02-14T22:09:20.016Z,14.43
2023-02-14T22:11:48.591Z,13.47
2023-02-14T22:14:18.469Z,13.17
2023-02-14T22:16:46.945Z,12.70
2023-02-14T22:19:16.514Z,12.57
2023-02-14T22:21:45.217Z,12.53
2023-02-14T22:24:13.836Z,12.80
2023-02-14T22:26:42.602Z,12.17
2023-02-14T22:29:12.441Z,11.57
2023-02-14T22:31:43.518Z,11.27
2023-02-14T22:34:13.465Z,11.13
2023-02-14T22:36:41.839Z,11.10
2023-02-14T22:39:10.496Z,11.03
2023-02-14T22:41:39.009Z,9.50
2023-02-14T22:44:08.110Z,9.73
2023-02-14T22:46:37.751Z,10.63
2023-02-14T22:49:08.036Z,11.17
2023-02-14T22:51:37.319Z,11.57
2023-02-14T22:54:06.957Z,11.07
2023-02-14T22:56:38.695Z,9.90
2023-02-14T22:59:08.181Z,10.07
2023-02-14T23:01:37.197Z,9.77
2023-02-14T23:04:06.064Z,9.00
2023-02-14T23:06:37.364Z,10.90
2023-02-14T23:09:07.207Z,9.40
2023-02-14T23:11:36.313Z,9.20
2023-02-14T23:14:22.521Z,9.00
2023-02-14T23:17:07.600Z,9.63
2023-02-14T23:19:54.667Z,9.87
2023-02-14T23:22:25.680Z,10.07
2023-02-14T23:24:55.237Z,9.23
2023-02-14T23:27:24.898Z,9.33
2023-02-14T23:29:53.396Z,9.30
2023-02-14T23:32:21.831Z,8.60
2023-02-14T23:34:50.351Z,9.07
2023-02-14T23:37:18.919Z,7.77
2023-02-14T23:39:48.903Z,8.27
2023-02-14T23:42:17.734Z,8.33
2023-02-14T23:44:46.797Z,8.40
2023-02-14T23:47:15.987Z,8.40
2023-02-14T23:49:45.848Z,8.47
2023-02-14T23:52:15.207Z,7.40
2023-02-14T23:54:43.651Z,8.10
2023-02-14T23:57:13.493Z,8.53
2023-02-14T23:59:41.902Z,9.40
